Terminal Aerodrome Forecast
Issued by NWS

Home | Current Version | Previous Version | Graphics & Text | Print | Product List | Glossary On
Versions: 1 2 3 4 5 6 7 8 9 10 11 12 13 14 15 16 17 18 19 20 21 22 23 24 25
000
FTUS43 KBIS 201500 AAA
TAFDIK
TAF AMD
KDIK 201518Z 2015/2112 16009KT P6SM VCSH BKN100
      TEMPO 2019/2023 3SM TSRA BKN030CB OVC050
     FM202300 27009KT P6SM -SHRA OVC050
     FM210600 29007KT P6SM SCT060=

USA.gov is the U.S. government's official web portal to all federal, state and local government web resources and services.